Terminal Aerodrome Forecast
Issued by NWS

Home | Current Version | Previous Version | Text Only | Print | Product List | Glossary On
Versions: 1 2 3 4 5 6 7 8 9 10 11 12 13 14 15 16 17 18 19 20
000
FTUS46 KMTR 281700
TAFOAK
TAF
KOAK 281740Z 2818/0124 29006KT P6SM VCSH SCT022
      TEMPO 2818/2822 BKN025
     FM282200 29009KT P6SM VCSH SCT025 BKN040
      TEMPO 2822/0102 SHRA BKN025
     FM010400 02005KT P6SM SCT030 BKN050
     FM011000 06003KT P6SM FEW050 FEW200=

USA.gov is the U.S. government's official web portal to all federal, state and local government web resources and services.